sensor_id;sensor_type;location;lat;lon;timestamp;P1;durP1;ratioP1;P2;durP2;ratioP2
34872;SDS011;21084;51.098;14.506;2023-02-21T00:01:44;15.43;;;6.95;;
34872;SDS011;21084;51.098;14.506;2023-02-21T00:04:30;12.70;;;6.35;;
34872;SDS011;21084;51.098;14.506;2023-02-21T00:07:16;13.75;;;6.93;;
34872;SDS011;21084;51.098;14.506;2023-02-21T00:10:03;12.77;;;6.55;;
34872;SDS011;21084;51.098;14.506;2023-02-21T00:12:51;14.27;;;6.55;;
34872;SDS011;21084;51.098;14.506;2023-02-21T00:15:37;12.73;;;6.38;;
34872;SDS011;21084;51.098;14.506;2023-02-21T00:18:23;13.85;;;6.00;;
34872;SDS011;21084;51.098;14.506;2023-02-21T00:21:09;12.15;;;5.82;;
34872;SDS011;21084;51.098;14.506;2023-02-21T00:23:55;11.02;;;6.05;;
34872;SDS011;21084;51.098;14.506;2023-02-21T00:26:41;15.60;;;6.68;;
34872;SDS011;21084;51.098;14.506;2023-02-21T00:29:28;10.55;;;6.07;;
34872;SDS011;21084;51.098;14.506;2023-02-21T00:32:14;12.95;;;6.32;;
34872;SDS011;21084;51.098;14.506;2023-02-21T00:35:00;14.65;;;6.03;;
34872;SDS011;21084;51.098;14.506;2023-02-21T00:37:48;14.25;;;7.35;;
34872;SDS011;21084;51.098;14.506;2023-02-21T00:40:34;12.05;;;5.63;;
34872;SDS011;21084;51.098;14.506;2023-02-21T00:43:26;10.88;;;6.13;;
34872;SDS011;21084;51.098;14.506;2023-02-21T00:46:14;14.75;;;6.03;;
34872;SDS011;21084;51.098;14.506;2023-02-21T00:49:00;12.20;;;5.78;;
34872;SDS011;21084;51.098;14.506;2023-02-21T00:51:47;10.07;;;5.55;;
34872;SDS011;21084;51.098;14.506;2023-02-21T00:54:33;9.95;;;6.20;;
34872;SDS011;21084;51.098;14.506;2023-02-21T00:57:19;10.88;;;5.60;;
34872;SDS011;21084;51.098;14.506;2023-02-21T01:00:06;13.65;;;6.38;;
34872;SDS011;21084;51.098;14.506;2023-02-21T01:02:59;11.57;;;5.22;;
34872;SDS011;21084;51.098;14.506;2023-02-21T01:05:45;10.15;;;5.43;;
34872;SDS011;21084;51.098;14.506;2023-02-21T01:08:31;10.05;;;5.20;;
34872;SDS011;21084;51.098;14.506;2023-02-21T01:11:18;11.73;;;5.40;;
34872;SDS011;21084;51.098;14.506;2023-02-21T01:14:06;11.75;;;5.55;;
34872;SDS011;21084;51.098;14.506;2023-02-21T01:16:54;10.73;;;5.75;;
34872;SDS011;21084;51.098;14.506;2023-02-21T01:19:41;11.70;;;5.82;;
34872;SDS011;21084;51.098;14.506;2023-02-21T01:22:27;10.18;;;5.90;;
34872;SDS011;21084;51.098;14.506;2023-02-21T01:25:13;12.13;;;5.50;;
34872;SDS011;21084;51.098;14.506;2023-02-21T01:28:00;10.88;;;5.70;;
34872;SDS011;21084;51.098;14.506;2023-02-21T01:30:46;11.02;;;5.45;;
34872;SDS011;21084;51.098;14.506;2023-02-21T01:33:36;12.52;;;6.32;;
34872;SDS011;21084;51.098;14.506;2023-02-21T01:36:24;12.13;;;6.97;;
34872;SDS011;21084;51.098;14.506;2023-02-21T01:39:11;11.80;;;6.80;;
34872;SDS011;21084;51.098;14.506;2023-02-21T01:41:57;14.02;;;6.80;;
34872;SDS011;21084;51.098;14.506;2023-02-21T01:44:44;12.82;;;6.35;;
34872;SDS011;21084;51.098;14.506;2023-02-21T01:47:31;12.57;;;6.53;;
34872;SDS011;21084;51.098;14.506;2023-02-21T01:50:18;15.25;;;6.60;;
34872;SDS011;21084;51.098;14.506;2023-02-21T01:53:09;15.23;;;6.55;;
34872;SDS011;21084;51.098;14.506;2023-02-21T01:55:58;11.35;;;6.38;;
34872;SDS011;21084;51.098;14.506;2023-02-21T01:58:45;12.15;;;6.43;;
34872;SDS011;21084;51.098;14.506;2023-02-21T02:01:45;14.23;;;6.47;;
34872;SDS011;21084;51.098;14.506;2023-02-21T02:04:34;13.88;;;6.38;;
34872;SDS011;21084;51.098;14.506;2023-02-21T02:07:21;10.30;;;5.80;;
34872;SDS011;21084;51.098;14.506;2023-02-21T02:10:08;11.73;;;5.93;;
34872;SDS011;21084;51.098;14.506;2023-02-21T02:13:01;12.43;;;6.30;;
34872;SDS011;21084;51.098;14.506;2023-02-21T02:15:44;12.30;;;5.85;;
34872;SDS011;21084;51.098;14.506;2023-02-21T02:18:33;12.15;;;5.50;;
34872;SDS011;21084;51.098;14.506;2023-02-21T02:21:23;11.93;;;5.90;;
34872;SDS011;21084;51.098;14.506;2023-02-21T02:24:27;10.23;;;5.50;;
34872;SDS011;21084;51.098;14.506;2023-02-21T02:27:16;12.57;;;5.53;;
34872;SDS011;21084;51.098;14.506;2023-02-21T02:30:26;12.05;;;5.65;;
34872;SDS011;21084;51.098;14.506;2023-02-21T02:33:15;11.00;;;5.20;;
34872;SDS011;21084;51.098;14.506;2023-02-21T02:36:04;11.65;;;6.15;;
34872;SDS011;21084;51.098;14.506;2023-02-21T02:38:35;13.65;;;5.82;;
34872;SDS011;21084;51.098;14.506;2023-02-21T02:41:13;15.32;;;6.30;;
34872;SDS011;21084;51.098;14.506;2023-02-21T02:43:47;15.25;;;7.00;;
34872;SDS011;21084;51.098;14.506;2023-02-21T02:46:22;15.90;;;6.50;;
34872;SDS011;21084;51.098;14.506;2023-02-21T02:48:55;12.15;;;6.38;;
34872;SDS011;21084;51.098;14.506;2023-02-21T02:51:28;12.50;;;6.47;;
34872;SDS011;21084;51.098;14.506;2023-02-21T02:53:59;12.25;;;6.68;;
34872;SDS011;21084;51.098;14.506;2023-02-21T02:56:28;13.68;;;6.85;;
34872;SDS011;21084;51.098;14.506;2023-02-21T02:58:57;13.32;;;6.53;;
34872;SDS011;21084;51.098;14.506;2023-02-21T03:01:46;12.10;;;6.53;;
34872;SDS011;21084;51.098;14.506;2023-02-21T03:04:29;16.05;;;6.63;;
34872;SDS011;21084;51.098;14.506;2023-02-21T03:07:14;12.35;;;6.63;;
34872;SDS011;21084;51.098;14.506;2023-02-21T03:09:50;12.95;;;6.70;;
34872;SDS011;21084;51.098;14.506;2023-02-21T03:12:29;13.45;;;7.03;;
34872;SDS011;21084;51.098;14.506;2023-02-21T03:15:03;13.50;;;6.90;;
34872;SDS011;21084;51.098;14.506;2023-02-21T03:17:38;15.23;;;7.22;;
34872;SDS011;21084;51.098;14.506;2023-02-21T03:20:10;12.95;;;7.00;;
34872;SDS011;21084;51.098;14.506;2023-02-21T03:22:42;19.67;;;7.60;;
34872;SDS011;21084;51.098;14.506;2023-02-21T03:25:12;17.30;;;7.18;;
34872;SDS011;21084;51.098;14.506;2023-02-21T03:27:42;13.45;;;7.43;;
34872;SDS011;21084;51.098;14.506;2023-02-21T03:30:11;16.02;;;7.22;;
34872;SDS011;21084;51.098;14.506;2023-02-21T03:32:42;14.25;;;7.03;;
34872;SDS011;21084;51.098;14.506;2023-02-21T03:35:14;12.98;;;6.47;;
34872;SDS011;21084;51.098;14.506;2023-02-21T03:37:45;11.83;;;6.00;;
34872;SDS011;21084;51.098;14.506;2023-02-21T03:40:16;10.20;;;5.70;;
34872;SDS011;21084;51.098;14.506;2023-02-21T03:42:49;12.30;;;6.60;;
34872;SDS011;21084;51.098;14.506;2023-02-21T03:45:18;11.00;;;6.30;;
34872;SDS011;21084;51.098;14.506;2023-02-21T03:47:47;12.43;;;6.05;;
34872;SDS011;21084;51.098;14.506;2023-02-21T03:50:15;10.95;;;6.47;;
34872;SDS011;21084;51.098;14.506;2023-02-21T03:52:45;10.80;;;5.68;;
34872;SDS011;21084;51.098;14.506;2023-02-21T03:55:14;13.52;;;5.70;;
34872;SDS011;21084;51.098;14.506;2023-02-21T03:57:43;10.35;;;5.72;;
34872;SDS011;21084;51.098;14.506;2023-02-21T04:00:12;12.48;;;5.90;;
34872;SDS011;21084;51.098;14.506;2023-02-21T04:05:10;11.20;;;5.63;;
34872;SDS011;21084;51.098;14.506;2023-02-21T04:07:38;13.43;;;6.88;;
34872;SDS011;21084;51.098;14.506;2023-02-21T04:10:08;11.65;;;6.60;;
34872;SDS011;21084;51.098;14.506;2023-02-21T04:12:37;12.57;;;6.20;;
34872;SDS011;21084;51.098;14.506;2023-02-21T04:15:05;11.27;;;6.35;;
34872;SDS011;21084;51.098;14.506;2023-02-21T04:17:34;12.80;;;6.05;;
34872;SDS011;21084;51.098;14.506;2023-02-21T04:20:03;15.63;;;6.40;;
34872;SDS011;21084;51.098;14.506;2023-02-21T04:22:32;12.75;;;6.95;;
34872;SDS011;21084;51.098;14.506;2023-02-21T04:25:01;11.25;;;6.50;;
34872;SDS011;21084;51.098;14.506;2023-02-21T04:27:30;11.07;;;6.55;;
34872;SDS011;21084;51.098;14.506;2023-02-21T04:30:00;10.73;;;6.18;;
34872;SDS011;21084;51.098;14.506;2023-02-21T04:32:29;12.85;;;6.35;;
34872;SDS011;21084;51.098;14.506;2023-02-21T04:34:57;11.93;;;6.45;;
34872;SDS011;21084;51.098;14.506;2023-02-21T04:37:26;10.68;;;6.60;;
34872;SDS011;21084;51.098;14.506;2023-02-21T04:39:54;9.73;;;6.13;;
34872;SDS011;21084;51.098;14.506;2023-02-21T04:42:22;11.00;;;6.50;;
34872;SDS011;21084;51.098;14.506;2023-02-21T04:44:52;12.30;;;6.72;;
34872;SDS011;21084;51.098;14.506;2023-02-21T04:47:26;12.60;;;6.70;;
34872;SDS011;21084;51.098;14.506;2023-02-21T04:49:54;10.73;;;6.25;;
34872;SDS011;21084;51.098;14.506;2023-02-21T04:52:24;9.50;;;5.75;;
34872;SDS011;21084;51.098;14.506;2023-02-21T04:54:52;14.27;;;6.47;;
34872;SDS011;21084;51.098;14.506;2023-02-21T04:57:21;11.35;;;6.35;;
34872;SDS011;21084;51.098;14.506;2023-02-21T04:59:56;11.90;;;6.90;;
34872;SDS011;21084;51.098;14.506;2023-02-21T05:02:25;13.40;;;7.00;;
34872;SDS011;21084;51.098;14.506;2023-02-21T05:04:54;13.65;;;7.40;;
34872;SDS011;21084;51.098;14.506;2023-02-21T05:07:23;12.55;;;7.28;;
34872;SDS011;21084;51.098;14.506;2023-02-21T05:09:51;13.10;;;7.05;;
34872;SDS011;21084;51.098;14.506;2023-02-21T05:12:20;13.73;;;7.03;;
34872;SDS011;21084;51.098;14.506;2023-02-21T05:14:48;13.75;;;7.35;;
34872;SDS011;21084;51.098;14.506;2023-02-21T05:17:18;13.45;;;7.05;;
34872;SDS011;21084;51.098;14.506;2023-02-21T05:19:47;14.98;;;7.55;;
34872;SDS011;21084;51.098;14.506;2023-02-21T05:22:15;17.38;;;7.57;;
34872;SDS011;21084;51.098;14.506;2023-02-21T05:24:46;15.88;;;7.63;;
34872;SDS011;21084;51.098;14.506;2023-02-21T05:27:15;14.15;;;7.60;;
34872;SDS011;21084;51.098;14.506;2023-02-21T05:29:45;15.68;;;8.20;;
34872;SDS011;21084;51.098;14.506;2023-02-21T05:32:14;14.90;;;7.78;;
34872;SDS011;21084;51.098;14.506;2023-02-21T05:34:45;14.82;;;8.60;;
34872;SDS011;21084;51.098;14.506;2023-02-21T05:37:14;16.88;;;8.27;;
34872;SDS011;21084;51.098;14.506;2023-02-21T05:39:46;16.60;;;7.68;;
34872;SDS011;21084;51.098;14.506;2023-02-21T05:42:15;20.52;;;7.57;;
34872;SDS011;21084;51.098;14.506;2023-02-21T05:44:44;14.35;;;8.23;;
34872;SDS011;21084;51.098;14.506;2023-02-21T05:47:12;17.48;;;8.93;;
34872;SDS011;21084;51.098;14.506;2023-02-21T05:49:41;16.63;;;9.00;;
34872;SDS011;21084;51.098;14.506;2023-02-21T05:52:12;20.95;;;8.70;;
34872;SDS011;21084;51.098;14.506;2023-02-21T05:54:42;17.50;;;8.77;;
34872;SDS011;21084;51.098;14.506;2023-02-21T05:57:11;17.60;;;8.13;;
34872;SDS011;21084;51.098;14.506;2023-02-21T05:59:39;14.35;;;8.50;;
34872;SDS011;21084;51.098;14.506;2023-02-21T06:02:09;16.55;;;8.15;;
34872;SDS011;21084;51.098;14.506;2023-02-21T06:04:38;18.20;;;8.93;;
34872;SDS011;21084;51.098;14.506;2023-02-21T06:07:06;19.67;;;9.60;;
34872;SDS011;21084;51.098;14.506;2023-02-21T06:09:36;20.00;;;8.70;;
34872;SDS011;21084;51.098;14.506;2023-02-21T06:12:05;19.95;;;9.80;;
34872;SDS011;21084;51.098;14.506;2023-02-21T06:14:33;19.75;;;9.27;;
34872;SDS011;21084;51.098;14.506;2023-02-21T06:17:02;19.30;;;9.15;;
34872;SDS011;21084;51.098;14.506;2023-02-21T06:19:30;18.77;;;8.15;;
34872;SDS011;21084;51.098;14.506;2023-02-21T06:22:00;17.50;;;9.48;;
34872;SDS011;21084;51.098;14.506;2023-02-21T06:24:29;16.15;;;9.32;;
34872;SDS011;21084;51.098;14.506;2023-02-21T06:26:59;20.25;;;10.20;;
34872;SDS011;21084;51.098;14.506;2023-02-21T06:31:56;16.83;;;9.48;;
34872;SDS011;21084;51.098;14.506;2023-02-21T06:34:25;33.00;;;19.35;;
34872;SDS011;21084;51.098;14.506;2023-02-21T06:36:54;20.88;;;11.63;;
34872;SDS011;21084;51.098;14.506;2023-02-21T06:39:23;20.17;;;10.68;;
34872;SDS011;21084;51.098;14.506;2023-02-21T06:41:51;17.88;;;9.23;;
34872;SDS011;21084;51.098;14.506;2023-02-21T06:44:21;17.70;;;9.38;;
34872;SDS011;21084;51.098;14.506;2023-02-21T06:49:20;18.38;;;9.80;;
34872;SDS011;21084;51.098;14.506;2023-02-21T06:51:48;17.60;;;9.10;;
34872;SDS011;21084;51.098;14.506;2023-02-21T06:54:17;18.70;;;9.02;;
34872;SDS011;21084;51.098;14.506;2023-02-21T06:56:46;21.65;;;10.63;;
34872;SDS011;21084;51.098;14.506;2023-02-21T06:59:14;17.35;;;9.73;;
34872;SDS011;21084;51.098;14.506;2023-02-21T07:01:44;23.13;;;10.82;;
34872;SDS011;21084;51.098;14.506;2023-02-21T07:06:41;19.15;;;10.27;;
34872;SDS011;21084;51.098;14.506;2023-02-21T07:09:09;21.40;;;11.32;;
34872;SDS011;21084;51.098;14.506;2023-02-21T07:11:39;23.58;;;10.60;;
34872;SDS011;21084;51.098;14.506;2023-02-21T07:14:08;20.48;;;10.20;;
34872;SDS011;21084;51.098;14.506;2023-02-21T07:19:07;19.70;;;10.75;;
34872;SDS011;21084;51.098;14.506;2023-02-21T07:21:35;20.77;;;10.18;;
34872;SDS011;21084;51.098;14.506;2023-02-21T07:24:06;20.33;;;9.50;;
34872;SDS011;21084;51.098;14.506;2023-02-21T07:26:35;24.45;;;11.48;;
34872;SDS011;21084;51.098;14.506;2023-02-21T07:29:04;20.70;;;10.73;;
34872;SDS011;21084;51.098;14.506;2023-02-21T07:31:33;22.23;;;10.67;;
34872;SDS011;21084;51.098;14.506;2023-02-21T07:34:01;18.98;;;10.02;;
34872;SDS011;21084;51.098;14.506;2023-02-21T07:36:31;18.63;;;9.68;;
34872;SDS011;21084;51.098;14.506;2023-02-21T07:38:59;25.15;;;10.82;;
34872;SDS011;21084;51.098;14.506;2023-02-21T07:41:28;21.30;;;10.38;;
34872;SDS011;21084;51.098;14.506;2023-02-21T07:43:56;20.13;;;10.23;;
34872;SDS011;21084;51.098;14.506;2023-02-21T07:46:26;19.08;;;9.88;;
34872;SDS011;21084;51.098;14.506;2023-02-21T07:51:26;18.25;;;8.73;;
34872;SDS011;21084;51.098;14.506;2023-02-21T07:53:57;15.57;;;8.88;;
34872;SDS011;21084;51.098;14.506;2023-02-21T07:58:53;18.77;;;9.30;;
34872;SDS011;21084;51.098;14.506;2023-02-21T08:01:22;19.40;;;10.05;;
34872;SDS011;21084;51.098;14.506;2023-02-21T08:03:52;15.05;;;8.38;;
34872;SDS011;21084;51.098;14.506;2023-02-21T08:06:20;15.85;;;8.15;;
34872;SDS011;21084;51.098;14.506;2023-02-21T08:08:49;15.90;;;8.43;;
34872;SDS011;21084;51.098;14.506;2023-02-21T08:11:19;16.33;;;8.25;;
34872;SDS011;21084;51.098;14.506;2023-02-21T08:16:15;16.05;;;9.20;;
34872;SDS011;21084;51.098;14.506;2023-02-21T08:18:45;17.75;;;9.07;;
34872;SDS011;21084;51.098;14.506;2023-02-21T08:21:16;18.13;;;9.48;;
34872;SDS011;21084;51.098;14.506;2023-02-21T08:23:44;17.15;;;9.80;;
34872;SDS011;21084;51.098;14.506;2023-02-21T08:26:13;16.65;;;9.85;;
34872;SDS011;21084;51.098;14.506;2023-02-21T08:28:43;17.02;;;9.35;;
34872;SDS011;21084;51.098;14.506;2023-02-21T08:31:12;18.92;;;9.18;;
34872;SDS011;21084;51.098;14.506;2023-02-21T08:33:41;18.73;;;9.68;;
34872;SDS011;21084;51.098;14.506;2023-02-21T08:36:10;20.58;;;10.23;;
34872;SDS011;21084;51.098;14.506;2023-02-21T08:38:39;15.93;;;9.65;;
34872;SDS011;21084;51.098;14.506;2023-02-21T08:41:07;17.02;;;9.75;;
34872;SDS011;21084;51.098;14.506;2023-02-21T08:43:36;23.85;;;10.43;;
34872;SDS011;21084;51.098;14.506;2023-02-21T08:46:06;17.73;;;10.40;;
34872;SDS011;21084;51.098;14.506;2023-02-21T08:48:35;20.52;;;10.45;;
34872;SDS011;21084;51.098;14.506;2023-02-21T08:51:04;20.80;;;10.38;;
34872;SDS011;21084;51.098;14.506;2023-02-21T08:53:32;18.77;;;10.00;;
34872;SDS011;21084;51.098;14.506;2023-02-21T08:56:01;18.73;;;10.18;;
34872;SDS011;21084;51.098;14.506;2023-02-21T08:58:29;22.52;;;11.10;;
34872;SDS011;21084;51.098;14.506;2023-02-21T09:00:58;25.40;;;10.82;;
34872;SDS011;21084;51.098;14.506;2023-02-21T09:03:28;20.33;;;9.70;;
34872;SDS011;21084;51.098;14.506;2023-02-21T09:05:56;17.05;;;9.50;;
34872;SDS011;21084;51.098;14.506;2023-02-21T09:08:25;19.98;;;10.75;;
34872;SDS011;21084;51.098;14.506;2023-02-21T09:10:56;18.10;;;9.45;;
34872;SDS011;21084;51.098;14.506;2023-02-21T09:13:26;19.58;;;10.35;;
34872;SDS011;21084;51.098;14.506;2023-02-21T09:15:55;18.02;;;9.85;;
34872;SDS011;21084;51.098;14.506;2023-02-21T09:18:24;18.90;;;10.73;;
34872;SDS011;21084;51.098;14.506;2023-02-21T09:20:55;20.45;;;11.07;;
34872;SDS011;21084;51.098;14.506;2023-02-21T09:23:25;21.25;;;10.90;;
34872;SDS011;21084;51.098;14.506;2023-02-21T09:25:55;23.90;;;11.00;;
34872;SDS011;21084;51.098;14.506;2023-02-21T09:28:24;23.38;;;11.63;;
34872;SDS011;21084;51.098;14.506;2023-02-21T09:30:52;21.85;;;11.18;;
34872;SDS011;21084;51.098;14.506;2023-02-21T09:33:21;20.02;;;10.65;;
34872;SDS011;21084;51.098;14.506;2023-02-21T09:35:51;20.35;;;10.82;;
34872;SDS011;21084;51.098;14.506;2023-02-21T09:38:21;21.25;;;10.20;;
34872;SDS011;21084;51.098;14.506;2023-02-21T09:43:23;21.67;;;10.93;;
34872;SDS011;21084;51.098;14.506;2023-02-21T09:46:00;23.25;;;10.95;;
34872;SDS011;21084;51.098;14.506;2023-02-21T09:48:31;22.00;;;11.18;;
34872;SDS011;21084;51.098;14.506;2023-02-21T09:51:01;23.13;;;12.10;;
34872;SDS011;21084;51.098;14.506;2023-02-21T09:53:34;22.85;;;12.05;;
34872;SDS011;21084;51.098;14.506;2023-02-21T09:56:06;24.25;;;12.52;;
34872;SDS011;21084;51.098;14.506;2023-02-21T09:58:41;28.30;;;12.48;;
34872;SDS011;21084;51.098;14.506;2023-02-21T10:01:19;25.27;;;13.63;;
34872;SDS011;21084;51.098;14.506;2023-02-21T10:06:27;29.83;;;13.35;;
34872;SDS011;21084;51.098;14.506;2023-02-21T10:09:07;30.35;;;14.43;;
34872;SDS011;21084;51.098;14.506;2023-02-21T10:11:45;28.88;;;14.00;;
34872;SDS011;21084;51.098;14.506;2023-02-21T10:14:26;34.38;;;14.73;;
34872;SDS011;21084;51.098;14.506;2023-02-21T10:17:02;33.28;;;16.02;;
34872;SDS011;21084;51.098;14.506;2023-02-21T10:19:40;34.33;;;17.15;;
34872;SDS011;21084;51.098;14.506;2023-02-21T10:22:13;30.77;;;15.07;;
34872;SDS011;21084;51.098;14.506;2023-02-21T10:24:47;34.88;;;16.17;;
34872;SDS011;21084;51.098;14.506;2023-02-21T10:27:17;29.58;;;15.50;;
34872;SDS011;21084;51.098;14.506;2023-02-21T10:29:47;30.25;;;16.05;;
34872;SDS011;21084;51.098;14.506;2023-02-21T10:32:21;32.85;;;15.75;;
34872;SDS011;21084;51.098;14.506;2023-02-21T10:34:51;30.48;;;14.75;;
34872;SDS011;21084;51.098;14.506;2023-02-21T10:37:31;27.08;;;13.60;;
34872;SDS011;21084;51.098;14.506;2023-02-21T10:40:10;25.55;;;13.00;;
34872;SDS011;21084;51.098;14.506;2023-02-21T10:42:53;29.30;;;14.63;;
34872;SDS011;21084;51.098;14.506;2023-02-21T10:45:29;27.80;;;13.35;;
34872;SDS011;21084;51.098;14.506;2023-02-21T10:48:03;27.10;;;13.40;;
34872;SDS011;21084;51.098;14.506;2023-02-21T10:50:36;26.92;;;13.48;;
34872;SDS011;21084;51.098;14.506;2023-02-21T10:53:07;32.67;;;14.15;;
34872;SDS011;21084;51.098;14.506;2023-02-21T10:55:56;29.08;;;13.20;;
34872;SDS011;21084;51.098;14.506;2023-02-21T10:58:48;24.13;;;12.48;;
34872;SDS011;21084;51.098;14.506;2023-02-21T11:01:19;29.65;;;12.93;;
34872;SDS011;21084;51.098;14.506;2023-02-21T11:03:51;27.15;;;12.73;;
34872;SDS011;21084;51.098;14.506;2023-02-21T11:06:26;28.85;;;13.23;;
34872;SDS011;21084;51.098;14.506;2023-02-21T11:09:01;34.65;;;15.27;;
34872;SDS011;21084;51.098;14.506;2023-02-21T11:11:58;25.85;;;13.68;;
34872;SDS011;21084;51.098;14.506;2023-02-21T11:14:29;31.60;;;14.30;;
34872;SDS011;21084;51.098;14.506;2023-02-21T11:19:45;22.98;;;13.00;;
34872;SDS011;21084;51.098;14.506;2023-02-21T11:22:19;26.67;;;14.00;;
34872;SDS011;21084;51.098;14.506;2023-02-21T11:25:00;26.55;;;13.32;;
34872;SDS011;21084;51.098;14.506;2023-02-21T11:27:33;26.60;;;13.05;;
34872;SDS011;21084;51.098;14.506;2023-02-21T11:30:08;25.83;;;13.35;;
34872;SDS011;21084;51.098;14.506;2023-02-21T11:32:41;25.70;;;13.07;;
34872;SDS011;21084;51.098;14.506;2023-02-21T11:35:20;26.25;;;13.57;;
34872;SDS011;21084;51.098;14.506;2023-02-21T11:37:52;26.95;;;13.68;;
34872;SDS011;21084;51.098;14.506;2023-02-21T11:40:23;22.90;;;12.13;;
34872;SDS011;21084;51.098;14.506;2023-02-21T11:46:02;25.23;;;13.25;;
34872;SDS011;21084;51.098;14.506;2023-02-21T11:48:41;25.30;;;12.75;;
34872;SDS011;21084;51.098;14.506;2023-02-21T11:51:17;27.85;;;13.23;;
34872;SDS011;21084;51.098;14.506;2023-02-21T11:53:53;21.98;;;12.02;;
34872;SDS011;21084;51.098;14.506;2023-02-21T11:56:29;26.75;;;13.13;;
34872;SDS011;21084;51.098;14.506;2023-02-21T11:59:18;23.20;;;12.25;;
34872;SDS011;21084;51.098;14.506;2023-02-21T12:02:11;25.77;;;11.68;;
34872;SDS011;21084;51.098;14.506;2023-02-21T12:04:51;22.73;;;12.27;;
34872;SDS011;21084;51.098;14.506;2023-02-21T12:07:30;22.80;;;12.02;;
34872;SDS011;21084;51.098;14.506;2023-02-21T12:10:08;25.05;;;12.50;;
34872;SDS011;21084;51.098;14.506;2023-02-21T12:13:02;22.77;;;11.70;;
34872;SDS011;21084;51.098;14.506;2023-02-21T12:15:43;21.65;;;12.10;;
34872;SDS011;21084;51.098;14.506;2023-02-21T12:18:25;19.65;;;10.73;;
34872;SDS011;21084;51.098;14.506;2023-02-21T12:21:16;19.90;;;11.77;;
34872;SDS011;21084;51.098;14.506;2023-02-21T12:24:06;21.88;;;10.65;;
34872;SDS011;21084;51.098;14.506;2023-02-21T12:26:48;23.63;;;11.13;;
34872;SDS011;21084;51.098;14.506;2023-02-21T12:29:25;22.33;;;10.77;;
34872;SDS011;21084;51.098;14.506;2023-02-21T12:32:15;20.58;;;11.75;;
34872;SDS011;21084;51.098;14.506;2023-02-21T12:34:58;19.17;;;10.57;;
34872;SDS011;21084;51.098;14.506;2023-02-21T12:37:42;17.20;;;10.27;;
34872;SDS011;21084;51.098;14.506;2023-02-21T12:40:18;20.63;;;11.20;;
34872;SDS011;21084;51.098;14.506;2023-02-21T12:42:58;21.50;;;10.30;;
34872;SDS011;21084;51.098;14.506;2023-02-21T12:45:48;19.63;;;10.85;;
34872;SDS011;21084;51.098;14.506;2023-02-21T12:48:28;21.50;;;10.50;;
34872;SDS011;21084;51.098;14.506;2023-02-21T12:51:02;22.75;;;10.93;;
34872;SDS011;21084;51.098;14.506;2023-02-21T12:53:35;19.92;;;10.68;;
34872;SDS011;21084;51.098;14.506;2023-02-21T12:56:11;20.02;;;9.93;;
34872;SDS011;21084;51.098;14.506;2023-02-21T12:58:46;19.73;;;10.43;;
34872;SDS011;21084;51.098;14.506;2023-02-21T13:01:19;20.15;;;9.95;;
34872;SDS011;21084;51.098;14.506;2023-02-21T13:03:55;19.35;;;10.40;;
34872;SDS011;21084;51.098;14.506;2023-02-21T13:06:34;19.00;;;10.13;;
34872;SDS011;21084;51.098;14.506;2023-02-21T13:09:07;19.23;;;10.25;;
34872;SDS011;21084;51.098;14.506;2023-02-21T13:11:42;18.45;;;10.35;;
34872;SDS011;21084;51.098;14.506;2023-02-21T13:14:17;17.85;;;9.88;;
34872;SDS011;21084;51.098;14.506;2023-02-21T13:16:53;16.35;;;9.02;;
34872;SDS011;21084;51.098;14.506;2023-02-21T13:19:23;21.98;;;9.85;;
34872;SDS011;21084;51.098;14.506;2023-02-21T13:25:20;18.30;;;8.98;;
34872;SDS011;21084;51.098;14.506;2023-02-21T13:27:56;21.77;;;9.38;;
34872;SDS011;21084;51.098;14.506;2023-02-21T13:30:36;20.00;;;10.02;;
34872;SDS011;21084;51.098;14.506;2023-02-21T13:33:19;23.50;;;10.20;;
34872;SDS011;21084;51.098;14.506;2023-02-21T13:35:53;16.38;;;8.70;;
34872;SDS011;21084;51.098;14.506;2023-02-21T13:38:25;20.42;;;9.35;;
34872;SDS011;21084;51.098;14.506;2023-02-21T13:41:02;16.58;;;9.57;;
34872;SDS011;21084;51.098;14.506;2023-02-21T13:43:35;19.35;;;9.85;;
34872;SDS011;21084;51.098;14.506;2023-02-21T13:49:38;24.08;;;11.38;;
34872;SDS011;21084;51.098;14.506;2023-02-21T13:52:23;22.52;;;11.05;;
34872;SDS011;21084;51.098;14.506;2023-02-21T14:01:14;16.95;;;9.50;;
34872;SDS011;21084;51.098;14.506;2023-02-21T14:07:05;19.50;;;9.23;;
34872;SDS011;21084;51.098;14.506;2023-02-21T14:09:35;17.85;;;9.65;;
34872;SDS011;21084;51.098;14.506;2023-02-21T14:12:07;20.92;;;10.15;;
34872;SDS011;21084;51.098;14.506;2023-02-21T14:14:41;17.05;;;9.02;;
34872;SDS011;21084;51.098;14.506;2023-02-21T14:17:12;19.27;;;9.38;;
34872;SDS011;21084;51.098;14.506;2023-02-21T14:19:45;15.25;;;8.98;;
34872;SDS011;21084;51.098;14.506;2023-02-21T14:22:22;18.98;;;9.07;;
34872;SDS011;21084;51.098;14.506;2023-02-21T14:25:04;18.25;;;8.88;;
34872;SDS011;21084;51.098;14.506;2023-02-21T14:27:37;20.52;;;10.65;;
34872;SDS011;21084;51.098;14.506;2023-02-21T14:35:53;21.63;;;10.90;;
34872;SDS011;21084;51.098;14.506;2023-02-21T14:38:27;20.05;;;10.02;;
34872;SDS011;21084;51.098;14.506;2023-02-21T14:41:04;22.98;;;10.45;;
34872;SDS011;21084;51.098;14.506;2023-02-21T14:46:43;22.95;;;10.85;;
34872;SDS011;21084;51.098;14.506;2023-02-21T14:49:35;20.00;;;10.68;;
34872;SDS011;21084;51.098;14.506;2023-02-21T14:58:41;27.25;;;10.90;;
34872;SDS011;21084;51.098;14.506;2023-02-21T15:01:43;20.80;;;11.23;;
34872;SDS011;21084;51.098;14.506;2023-02-21T15:04:22;22.17;;;11.70;;
34872;SDS011;21084;51.098;14.506;2023-02-21T15:07:00;20.67;;;10.65;;
34872;SDS011;21084;51.098;14.506;2023-02-21T15:09:38;23.17;;;12.00;;
34872;SDS011;21084;51.098;14.506;2023-02-21T15:12:09;19.88;;;10.45;;
34872;SDS011;21084;51.098;14.506;2023-02-21T15:14:47;18.90;;;9.50;;
34872;SDS011;21084;51.098;14.506;2023-02-21T15:17:18;25.42;;;10.93;;
34872;SDS011;21084;51.098;14.506;2023-02-21T15:19:59;18.75;;;10.93;;
34872;SDS011;21084;51.098;14.506;2023-02-21T15:22:32;20.08;;;9.88;;
34872;SDS011;21084;51.098;14.506;2023-02-21T15:27:52;18.42;;;9.43;;
34872;SDS011;21084;51.098;14.506;2023-02-21T15:30:38;19.85;;;10.40;;
34872;SDS011;21084;51.098;14.506;2023-02-21T15:33:12;20.95;;;9.65;;
34872;SDS011;21084;51.098;14.506;2023-02-21T15:35:44;19.85;;;10.23;;
34872;SDS011;21084;51.098;14.506;2023-02-21T15:38:16;18.80;;;9.65;;
34872;SDS011;21084;51.098;14.506;2023-02-21T15:40:50;22.77;;;10.52;;
34872;SDS011;21084;51.098;14.506;2023-02-21T15:43:28;20.77;;;10.65;;
34872;SDS011;21084;51.098;14.506;2023-02-21T15:46:02;19.90;;;10.73;;
34872;SDS011;21084;51.098;14.506;2023-02-21T15:48:34;22.73;;;10.52;;
34872;SDS011;21084;51.098;14.506;2023-02-21T15:51:03;23.23;;;11.43;;
34872;SDS011;21084;51.098;14.506;2023-02-21T15:53:34;27.85;;;13.40;;
34872;SDS011;21084;51.098;14.506;2023-02-21T15:56:20;23.95;;;11.68;;
34872;SDS011;21084;51.098;14.506;2023-02-21T15:59:10;27.95;;;13.90;;
34872;SDS011;21084;51.098;14.506;2023-02-21T16:06:52;27.17;;;13.27;;
34872;SDS011;21084;51.098;14.506;2023-02-21T16:09:24;28.70;;;14.63;;
34872;SDS011;21084;51.098;14.506;2023-02-21T16:11:57;24.42;;;13.60;;
34872;SDS011;21084;51.098;14.506;2023-02-21T16:14:31;25.75;;;13.85;;